Time;durP1;ratioP1;P1;durP2;ratioP2;P2;SDS_P1;SDS_P2;PMS_P1;PMS_P2;Temp;Humidity;BMP_temperature;BMP_pressure;BME280_temperature;BME280_humidity;BME280_pressure;Samples;Min_cycle;Max_cycle;Signal;HPM_P1;HPM_P2
2022/07/07 03:02:32;;;;;;;0.85;0.68;;;25.40;34.00;;;;;;4934654;23;45426;-60
2022/07/07 03:04:57;;;;;;;3.47;0.73;;;25.30;33.90;;;;;;4930141;28;45551;-59
2022/07/07 03:07:23;;;;;;;0.68;0.65;;;25.30;33.90;;;;;;4952278;28;45315;-57
2022/07/07 03:09:48;;;;;;;1.65;0.80;;;25.30;34.00;;;;;;4931561;28;45481;-58
2022/07/07 03:12:14;;;;;;;1.33;0.60;;;25.30;34.00;;;;;;4915812;28;45423;-60
2022/07/07 03:14:39;;;;;;;3.25;0.73;;;25.40;34.00;;;;;;4921532;28;45031;-59
2022/07/07 03:17:05;;;;;;;1.83;0.60;;;25.40;34.00;;;;;;4933708;28;44852;-59
2022/07/07 03:19:31;;;;;;;1.92;1.10;;;25.40;34.10;;;;;;4930749;28;45937;-58
2022/07/07 03:21:56;;;;;;;2.63;0.85;;;25.40;34.10;;;;;;4930114;28;44789;-59
2022/07/07 03:24:22;;;;;;;3.25;0.70;;;25.40;34.70;;;;;;4932957;28;45277;-58
2022/07/07 03:26:47;;;;;;;1.00;0.80;;;25.40;34.10;;;;;;4933571;28;45294;-60
2022/07/07 03:29:13;;;;;;;0.73;0.63;;;25.40;34.10;;;;;;4916958;28;45034;-60
2022/07/07 03:31:38;;;;;;;3.38;0.80;;;25.40;34.20;;;;;;4936667;28;44959;-58
2022/07/07 03:34:04;;;;;;;2.03;0.70;;;25.40;34.30;;;;;;4929216;28;45510;-60
2022/07/07 03:36:29;;;;;;;2.20;0.70;;;25.40;34.30;;;;;;4932536;28;45665;-60
2022/07/07 03:38:55;;;;;;;1.10;0.60;;;25.40;34.40;;;;;;4937559;28;45219;-59
2022/07/07 03:41:21;;;;;;;1.95;1.13;;;25.40;34.40;;;;;;4930379;28;45535;-61
2022/07/07 03:43:46;;;;;;;1.45;0.80;;;25.40;34.40;;;;;;4932391;28;45654;-57
2022/07/07 03:46:12;;;;;;;2.67;0.60;;;25.40;34.40;;;;;;4934675;28;45366;-61
2022/07/07 03:48:37;;;;;;;2.47;0.80;;;25.50;35.10;;;;;;4928500;28;45936;-60
2022/07/07 03:51:03;;;;;;;2.08;0.98;;;25.50;34.50;;;;;;4931436;28;45291;-56
2022/07/07 03:53:28;;;;;;;0.85;0.60;;;25.50;34.50;;;;;;4931340;28;44635;-56
2022/07/07 03:55:54;;;;;;;1.60;0.77;;;25.50;34.60;;;;;;4896973;28;44767;-59
2022/07/07 03:58:19;;;;;;;1.63;0.75;;;25.50;34.60;;;;;;4930006;28;45829;-60
2022/07/07 04:00:45;;;;;;;1.95;0.70;;;25.40;34.50;;;;;;4929937;28;45202;-58
2022/07/07 04:03:11;;;;;;;2.67;0.75;;;25.40;34.60;;;;;;4934150;28;45254;-61
2022/07/07 04:05:36;;;;;;;2.13;0.85;;;25.40;34.60;;;;;;4933646;28;45366;-57
2022/07/07 04:08:02;;;;;;;4.15;0.88;;;25.50;34.70;;;;;;4912573;28;45967;-61
2022/07/07 04:10:27;;;;;;;2.35;0.95;;;25.40;34.60;;;;;;4930685;28;45285;-61
2022/07/07 04:12:55;;;;;;;0.95;0.60;;;25.40;34.70;;;;;;4936467;28;45244;-60
2022/07/07 04:15:21;;;;;;;0.95;0.60;;;25.40;34.80;;;;;;4935411;28;45229;-60
2022/07/07 04:17:47;;;;;;;1.10;0.70;;;25.40;34.80;;;;;;4911545;28;47078;-59
2022/07/07 04:20:12;;;;;;;1.17;0.68;;;25.30;34.80;;;;;;4913850;28;45441;-61
2022/07/07 04:22:38;;;;;;;1.40;0.70;;;25.30;34.90;;;;;;4932455;28;46130;-60
2022/07/07 04:25:04;;;;;;;2.88;0.77;;;25.30;34.90;;;;;;4933317;28;45319;-58
2022/07/07 04:27:29;;;;;;;5.07;0.80;;;25.30;34.90;;;;;;4927952;28;45873;-60
2022/07/07 04:29:55;;;;;;;0.70;0.60;;;25.30;34.90;;;;;;4931786;28;45267;-59
2022/07/07 04:32:20;;;;;;;1.10;0.68;;;25.30;35.00;;;;;;4929523;28;45465;-60
2022/07/07 04:34:46;;;;;;;1.15;0.70;;;25.20;34.90;;;;;;4928288;28;45558;-58
2022/07/07 04:37:12;;;;;;;3.42;0.77;;;25.20;35.00;;;;;;4930185;28;45397;-60
2022/07/07 04:39:37;;;;;;;3.10;0.90;;;25.20;34.90;;;;;;4916978;28;45452;-60
2022/07/07 04:42:04;;;;;;;4.15;0.80;;;25.20;35.00;;;;;;4929399;28;45092;-60
2022/07/07 04:44:29;;;;;;;2.45;0.82;;;25.20;35.00;;;;;;4926683;28;45092;-58
2022/07/07 04:46:55;;;;;;;2.58;0.80;;;25.20;35.10;;;;;;4932598;28;45860;-59
2022/07/07 04:49:21;;;;;;;3.10;0.60;;;25.20;35.10;;;;;;4935496;28;45380;-57
2022/07/07 04:51:47;;;;;;;0.90;0.70;;;25.20;35.10;;;;;;4932295;28;45211;-58
2022/07/07 04:54:13;;;;;;;1.40;0.70;;;25.10;35.00;;;;;;4922411;28;45587;-57
2022/07/07 04:56:38;;;;;;;1.50;0.60;;;25.10;35.00;;;;;;4933615;28;47332;-59
2022/07/07 04:59:04;;;;;;;1.65;0.70;;;25.10;35.10;;;;;;4935188;28;45203;-58
2022/07/07 05:01:29;;;;;;;2.17;1.00;;;25.10;35.10;;;;;;4936300;28;45471;-60
2022/07/07 05:03:55;;;;;;;1.58;1.08;;;25.00;35.10;;;;;;4915888;28;45745;-60
2022/07/07 05:06:21;;;;;;;3.70;0.90;;;25.00;35.20;;;;;;4928394;28;46152;-58
2022/07/07 05:08:46;;;;;;;1.98;0.80;;;25.00;35.20;;;;;;4934151;28;45683;-60
2022/07/07 05:11:12;;;;;;;1.85;0.90;;;25.10;35.10;;;;;;4939145;28;45312;-57
2022/07/07 05:13:38;;;;;;;1.42;0.80;;;25.10;35.00;;;;;;4916371;28;45465;-58
2022/07/07 05:16:04;;;;;;;2.60;0.75;;;25.10;35.10;;;;;;4932030;28;46003;-60
2022/07/07 05:18:30;;;;;;;1.42;0.50;;;25.10;35.20;;;;;;4907027;28;45208;-58
2022/07/07 05:20:55;;;;;;;1.65;0.50;;;25.00;35.20;;;;;;4917946;28;45303;-60
2022/07/07 05:23:21;;;;;;;1.80;0.65;;;25.00;35.20;;;;;;4934052;28;45679;-59
2022/07/07 05:25:47;;;;;;;0.95;0.75;;;25.00;35.30;;;;;;4931116;28;46114;-59
2022/07/07 05:28:12;;;;;;;1.17;0.70;;;25.00;35.30;;;;;;4928283;28;44779;-60
2022/07/07 05:30:38;;;;;;;1.77;0.60;;;25.00;35.20;;;;;;4919794;28;45412;-58
2022/07/07 05:33:07;;;;;;;0.68;0.50;;;25.00;35.20;;;;;;4931692;28;45232;-61
2022/07/07 05:35:34;;;;;;;3.47;0.60;;;25.00;35.30;;;;;;4922198;28;46054;-59
2022/07/07 05:38:00;;;;;;;0.93;0.65;;;25.00;35.30;;;;;;4937534;28;45333;-61
2022/07/07 05:40:26;;;;;;;2.55;0.60;;;25.00;35.30;;;;;;4928491;28;45265;-61
2022/07/07 05:42:52;;;;;;;1.88;0.68;;;25.00;35.30;;;;;;4914462;28;45239;-60
2022/07/07 05:45:18;;;;;;;1.58;0.60;;;25.00;35.40;;;;;;4912769;28;45859;-61
2022/07/07 05:47:43;;;;;;;1.48;0.60;;;25.00;35.40;;;;;;4930885;28;45509;-58
2022/07/07 05:50:09;;;;;;;1.65;0.90;;;25.00;35.40;;;;;;4916999;28;45175;-60
2022/07/07 05:52:34;;;;;;;0.98;0.70;;;25.00;35.50;;;;;;4932907;28;45541;-58
2022/07/07 05:55:00;;;;;;;1.45;0.52;;;25.00;35.50;;;;;;4931131;28;45992;-58
2022/07/07 05:57:25;;;;;;;1.63;0.45;;;25.00;35.50;;;;;;4935180;28;45625;-59
2022/07/07 05:59:51;;;;;;;1.27;0.88;;;25.00;35.50;;;;;;4924154;28;45396;-57
2022/07/07 06:02:16;;;;;;;1.13;0.90;;;25.00;35.50;;;;;;4936394;28;45447;-59
2022/07/07 06:04:42;;;;;;;1.63;0.60;;;25.00;35.40;;;;;;4930327;28;46154;-59
2022/07/07 06:07:08;;;;;;;6.28;0.90;;;25.00;35.40;;;;;;4933356;28;45513;-59
2022/07/07 06:09:33;;;;;;;2.15;1.00;;;25.10;35.50;;;;;;4931495;28;45865;-57
2022/07/07 06:11:59;;;;;;;1.33;0.73;;;25.10;35.40;;;;;;4935663;28;45570;-57
2022/07/07 06:14:25;;;;;;;1.10;0.50;;;25.10;35.40;;;;;;4930809;28;46184;-59
2022/07/07 06:16:51;;;;;;;1.63;0.60;;;25.20;35.50;;;;;;4925308;28;45398;-59
2022/07/07 06:19:17;;;;;;;4.55;0.60;;;25.20;35.40;;;;;;4930287;28;44933;-57
2022/07/07 06:21:43;;;;;;;5.53;0.70;;;25.20;35.40;;;;;;4935577;28;45258;-59
2022/07/07 06:24:09;;;;;;;0.60;0.52;;;25.20;35.50;;;;;;4932031;28;45628;-59
2022/07/07 06:26:34;;;;;;;1.70;0.70;;;25.20;35.40;;;;;;4921103;28;45329;-59
2022/07/07 06:29:00;;;;;;;1.65;0.90;;;25.30;35.40;;;;;;4934486;28;45434;-60
2022/07/07 06:31:26;;;;;;;1.08;0.60;;;25.20;35.40;;;;;;4931534;28;45564;-58
2022/07/07 06:33:51;;;;;;;2.05;0.80;;;25.30;35.40;;;;;;4942034;28;46819;-59
2022/07/07 06:36:17;;;;;;;3.25;0.95;;;25.30;35.30;;;;;;4932624;28;45054;-59
2022/07/07 06:38:43;;;;;;;2.63;0.65;;;25.20;35.20;;;;;;4934675;28;45318;-57
2022/07/07 06:41:09;;;;;;;3.67;0.68;;;25.20;35.20;;;;;;4928994;28;45200;-59
2022/07/07 06:43:35;;;;;;;1.95;0.85;;;25.20;35.30;;;;;;4932142;28;45350;-59
2022/07/07 06:46:00;;;;;;;5.20;0.85;;;25.20;35.30;;;;;;4933062;28;45350;-59
2022/07/07 06:48:26;;;;;;;2.70;0.80;;;25.30;35.40;;;;;;4917491;28;45068;-57
2022/07/07 06:50:51;;;;;;;5.63;0.90;;;25.20;35.20;;;;;;4933017;28;45152;-59
2022/07/07 06:53:17;;;;;;;2.05;0.65;;;25.20;35.20;;;;;;4934890;28;45872;-58
2022/07/07 06:55:43;;;;;;;0.50;0.50;;;25.30;35.30;;;;;;4911970;28;45438;-60
2022/07/07 06:58:08;;;;;;;1.85;0.80;;;25.30;35.20;;;;;;4930787;28;44995;-56
2022/07/07 07:00:34;;;;;;;1.80;0.80;;;25.30;35.10;;;;;;4933005;28;45008;-59
2022/07/07 07:03:00;;;;;;;1.15;0.80;;;25.30;35.20;;;;;;4935596;28;46030;-58
2022/07/07 07:05:26;;;;;;;2.45;0.80;;;25.30;35.20;;;;;;4931931;28;45182;-59
2022/07/07 07:07:51;;;;;;;3.03;0.82;;;25.30;35.20;;;;;;4931743;28;45396;-57
2022/07/07 07:10:17;;;;;;;2.25;0.90;;;25.30;35.20;;;;;;4932561;28;45293;-58
2022/07/07 07:12:42;;;;;;;1.60;0.65;;;25.30;35.40;;;;;;4933446;28;45798;-59
2022/07/07 07:15:08;;;;;;;1.45;0.50;;;25.30;35.50;;;;;;4934122;28;45224;-58
2022/07/07 07:17:34;;;;;;;4.53;0.90;;;25.30;36.40;;;;;;4931943;28;45237;-58
2022/07/07 07:19:59;;;;;;;3.92;0.75;;;25.30;35.90;;;;;;4910749;28;45491;-59
2022/07/07 07:22:26;;;;;;;1.58;0.73;;;25.30;36.20;;;;;;4932111;28;45493;-59
2022/07/07 07:24:52;;;;;;;1.92;0.80;;;25.30;36.40;;;;;;4918859;28;45855;-59
2022/07/07 07:27:17;;;;;;;3.28;0.60;;;25.30;36.60;;;;;;4909513;28;45478;-60
2022/07/07 07:29:43;;;;;;;4.53;0.60;;;25.30;36.70;;;;;;4932727;28;45432;-60
2022/07/07 07:32:08;;;;;;;4.80;1.00;;;25.40;36.90;;;;;;4930937;28;46894;-59
2022/07/07 07:34:34;;;;;;;1.45;0.68;;;25.40;37.10;;;;;;4933098;28;44743;-56
2022/07/07 07:37:00;;;;;;;3.33;0.82;;;25.40;37.30;;;;;;4931039;28;45501;-55
2022/07/07 07:39:26;;;;;;;2.88;1.00;;;25.40;37.50;;;;;;4934807;28;45587;-55
2022/07/07 07:41:52;;;;;;;3.65;0.90;;;25.40;37.50;;;;;;4933565;28;46093;-56
2022/07/07 07:45:09;;;;;;;1.05;0.63;;;25.40;37.80;;;;;;4936411;28;45295;-57
2022/07/07 07:47:04;;;;;;;1.45;0.88;;;25.40;37.90;;;;;;4935384;28;45021;-54
2022/07/07 07:49:29;;;;;;;3.92;0.85;;;25.40;38.00;;;;;;4927678;28;44737;-56
2022/07/07 07:51:55;;;;;;;1.70;0.90;;;25.40;38.10;;;;;;4911180;28;45914;-56
2022/07/07 07:54:20;;;;;;;2.30;0.75;;;25.50;38.40;;;;;;4936297;28;44857;-57
2022/07/07 07:56:47;;;;;;;1.20;0.77;;;25.50;38.50;;;;;;4935621;28;45218;-60
2022/07/07 07:59:13;;;;;;;4.15;0.85;;;25.50;38.50;;;;;;4925726;28;45260;-59
2022/07/07 08:01:39;;;;;;;2.08;1.05;;;25.50;38.70;;;;;;4932623;28;45515;-58
2022/07/07 08:04:05;;;;;;;2.67;0.80;;;25.50;38.60;;;;;;4931258;28;44776;-60
2022/07/07 08:06:31;;;;;;;1.42;0.70;;;25.60;38.70;;;;;;4925992;28;44837;-55
2022/07/07 08:08:56;;;;;;;1.30;0.80;;;25.60;38.80;;;;;;4933125;28;45520;-58
2022/07/07 08:11:22;;;;;;;2.78;0.85;;;25.60;38.90;;;;;;4912743;28;46088;-58
2022/07/07 08:13:47;;;;;;;2.55;0.70;;;25.60;39.00;;;;;;4924203;28;45013;-59
2022/07/07 08:16:13;;;;;;;1.52;0.70;;;25.60;39.20;;;;;;4942564;23;46445;-56
2022/07/07 08:18:38;;;;;;;4.40;0.77;;;25.60;39.10;;;;;;4943764;28;45627;-60
2022/07/07 08:21:04;;;;;;;2.13;0.80;;;25.60;39.20;;;;;;4947733;28;45859;-59
2022/07/07 08:23:30;;;;;;;0.80;0.57;;;25.70;39.40;;;;;;4947735;28;45556;-58
2022/07/07 08:25:55;;;;;;;2.42;0.82;;;25.70;39.60;;;;;;4948079;28;44981;-60
2022/07/07 08:28:21;;;;;;;2.25;0.90;;;25.70;39.80;;;;;;4946239;28;44867;-59
2022/07/07 08:30:46;;;;;;;2.15;0.70;;;25.70;39.90;;;;;;4939347;28;46229;-57
2022/07/07 08:33:12;;;;;;;1.17;0.70;;;25.70;39.80;;;;;;4950994;28;45244;-57
2022/07/07 08:35:37;;;;;;;6.07;1.00;;;25.70;40.10;;;;;;4948082;28;45270;-60
2022/07/07 08:38:03;;;;;;;2.63;0.73;;;25.70;40.40;;;;;;4948919;28;45426;-56
2022/07/07 08:40:29;;;;;;;2.20;0.80;;;25.60;40.50;;;;;;4944087;28;45246;-59
2022/07/07 08:42:54;;;;;;;0.70;0.70;;;25.70;40.70;;;;;;4947929;28;45475;-59
2022/07/07 08:45:20;;;;;;;3.05;0.70;;;25.60;40.90;;;;;;4946309;28;45453;-60
2022/07/07 08:47:45;;;;;;;4.15;0.85;;;25.60;41.10;;;;;;4947090;28;45150;-58
2022/07/07 08:50:11;;;;;;;3.67;1.45;;;25.60;41.30;;;;;;4945037;28;46374;-58
2022/07/07 08:52:40;;;;;;;3.05;0.90;;;25.60;41.40;;;;;;4921387;28;45613;-58
2022/07/07 08:55:06;;;;;;;1.45;0.88;;;25.60;41.40;;;;;;4951543;28;44725;-58
2022/07/07 08:57:32;;;;;;;2.60;0.98;;;25.60;41.40;;;;;;4931378;28;45670;-58
2022/07/07 08:59:59;;;;;;;3.35;0.65;;;25.60;41.30;;;;;;4914940;28;45505;-59
2022/07/07 09:02:24;;;;;;;2.88;0.88;;;25.60;41.30;;;;;;4941552;28;45469;-58
2022/07/07 09:04:53;;;;;;;1.38;0.90;;;25.70;41.30;;;;;;4950528;28;45167;-58
2022/07/07 09:07:19;;;;;;;2.53;0.70;;;25.70;41.50;;;;;;4944889;28;45763;-58
2022/07/07 09:09:55;;;;;;;1.80;0.82;;;25.70;41.50;;;;;;4949616;28;46196;-56
2022/07/07 09:12:20;;;;;;;2.70;1.00;;;25.70;41.80;;;;;;4950302;28;44892;-57
2022/07/07 09:14:55;;;;;;;1.58;0.77;;;25.60;41.60;;;;;;4943629;28;45199;-55
2022/07/07 09:17:26;;;;;;;2.80;1.10;;;25.70;42.00;;;;;;4942582;28;45590;-58
2022/07/07 09:20:09;;;;;;;2.53;1.10;;;25.70;42.10;;;;;;4942175;28;46099;-57
2022/07/07 09:22:56;;;;;;;3.30;0.80;;;25.70;42.60;;;;;;4947765;28;44856;-57
2022/07/07 09:25:24;;;;;;;1.55;0.70;;;25.70;42.10;;;;;;4949070;28;44761;-57
2022/07/07 09:27:56;;;;;;;1.90;1.00;;;25.70;41.60;;;;;;4947316;28;45517;-56
2022/07/07 09:30:41;;;;;;;5.07;0.83;;;25.70;41.70;;;;;;4927920;28;46720;-56
2022/07/07 09:33:07;;;;;;;1.90;0.90;;;25.80;42.20;;;;;;4944350;28;45217;-58
2022/07/07 09:38:25;;;;;;;2.15;0.90;;;25.80;41.60;;;;;;4951831;28;45830;-57
2022/07/07 09:40:51;;;;;;;2.92;0.80;;;25.80;41.50;;;;;;4951810;28;46079;-57
2022/07/07 09:43:17;;;;;;;2.63;0.98;;;25.80;41.40;;;;;;4946581;28;45232;-58
2022/07/07 09:45:45;;;;;;;1.77;0.70;;;25.80;41.30;;;;;;4947822;28;45354;-57
2022/07/07 09:48:11;;;;;;;3.63;0.93;;;25.80;41.70;;;;;;4944908;28;45365;-57
2022/07/07 09:50:37;;;;;;;2.13;1.00;;;25.80;41.50;;;;;;4928797;28;45220;-55
2022/07/07 09:53:07;;;;;;;2.50;0.90;;;25.70;41.50;;;;;;4942991;28;45241;-57
2022/07/07 09:55:32;;;;;;;4.68;1.30;;;25.70;41.70;;;;;;4949074;28;44799;-57
2022/07/07 09:57:58;;;;;;;3.60;1.00;;;25.70;41.50;;;;;;4939016;28;45422;-59
2022/07/07 10:00:23;;;;;;;2.63;0.90;;;25.70;41.50;;;;;;4950558;28;48111;-56
2022/07/07 10:02:50;;;;;;;3.83;1.10;;;25.70;41.50;;;;;;4952429;28;45517;-58
2022/07/07 10:05:19;;;;;;;3.53;0.90;;;25.70;41.70;;;;;;4941942;28;45220;-57
2022/07/07 10:07:47;;;;;;;2.38;0.88;;;25.70;41.70;;;;;;4951185;28;45620;-58
2022/07/07 10:10:12;;;;;;;2.17;0.80;;;25.70;41.70;;;;;;4945036;28;45152;-57
2022/07/07 10:12:44;;;;;;;5.88;1.20;;;25.70;41.70;;;;;;4937131;28;45257;-57
2022/07/07 10:15:13;;;;;;;1.02;0.82;;;25.70;42.20;;;;;;4952085;28;44796;-56
2022/07/07 10:17:39;;;;;;;4.88;1.05;;;25.60;41.90;;;;;;4951098;28;45373;-59
2022/07/07 10:20:05;;;;;;;2.28;1.08;;;25.60;41.90;;;;;;4953907;28;46024;-60
2022/07/07 10:22:31;;;;;;;2.90;0.90;;;25.60;41.80;;;;;;4947762;28;45062;-57
2022/07/07 10:24:58;;;;;;;2.58;0.70;;;25.60;41.90;;;;;;4940633;28;45132;-59
2022/07/07 10:27:25;;;;;;;2.75;0.90;;;25.50;42.10;;;;;;4959136;28;45246;-59
2022/07/07 10:29:52;;;;;;;2.58;1.20;;;25.50;42.10;;;;;;4955530;28;47413;-58
2022/07/07 10:32:39;;;;;;;1.98;0.90;;;25.50;42.20;;;;;;4945665;28;45257;-60
2022/07/07 10:35:12;;;;;;;5.45;1.10;;;25.50;42.30;;;;;;4948992;28;45525;-57
2022/07/07 10:37:48;;;;;;;2.88;1.20;;;25.50;42.50;;;;;;4944729;28;45689;-59
2022/07/07 10:40:21;;;;;;;4.45;1.00;;;25.40;42.50;;;;;;4957156;28;45049;-59
2022/07/07 10:43:05;;;;;;;1.80;0.85;;;25.40;42.50;;;;;;4948019;28;45273;-57
2022/07/07 10:45:31;;;;;;;1.75;0.88;;;25.50;42.60;;;;;;4942327;28;45230;-60
2022/07/07 10:47:57;;;;;;;4.82;1.00;;;25.40;42.40;;;;;;4917780;28;44890;-57
2022/07/07 10:50:31;;;;;;;1.83;0.85;;;25.40;42.30;;;;;;4952069;28;46742;-58
2022/07/07 10:52:57;;;;;;;1.75;0.90;;;25.40;42.60;;;;;;4936608;28;45049;-60
2022/07/07 10:55:52;;;;;;;1.63;0.80;;;25.40;42.30;;;;;;4947245;28;45216;-54
2022/07/07 10:58:52;;;;;;;2.05;0.77;;;25.50;42.80;;;;;;4951997;28;45160;-56
2022/07/07 11:01:17;;;;;;;2.78;0.82;;;25.50;42.60;;;;;;4956356;28;46186;-56
2022/07/07 11:03:43;;;;;;;1.65;0.98;;;25.50;42.10;;;;;;4949851;28;45210;-57
2022/07/07 11:06:08;;;;;;;1.58;0.85;;;25.50;42.00;;;;;;4933369;28;45350;-58
2022/07/07 11:08:35;;;;;;;1.58;0.80;;;25.60;41.90;;;;;;4947295;28;45205;-57
2022/07/07 11:11:01;;;;;;;1.48;0.80;;;25.60;41.80;;;;;;4948419;28;45250;-56
2022/07/07 11:13:33;;;;;;;3.13;0.75;;;25.60;41.70;;;;;;4949979;28;44777;-53
2022/07/07 11:16:10;;;;;;;1.80;0.80;;;25.70;41.80;;;;;;4949655;28;45366;-56
2022/07/07 11:18:35;;;;;;;3.28;0.80;;;25.70;41.90;;;;;;4947710;28;45510;-56
2022/07/07 11:21:05;;;;;;;3.70;0.80;;;25.70;41.60;;;;;;4942728;28;46201;-54
2022/07/07 11:23:55;;;;;;;2.53;0.75;;;25.80;41.70;;;;;;4954489;28;45339;-54
2022/07/07 11:26:25;;;;;;;1.45;0.95;;;25.80;41.80;;;;;;4951247;28;45031;-53
2022/07/07 11:28:55;;;;;;;3.08;0.80;;;25.80;41.50;;;;;;4949866;28;45504;-59
2022/07/07 11:31:21;;;;;;;1.23;0.77;;;25.90;41.40;;;;;;4953997;28;47053;-56
2022/07/07 11:33:51;;;;;;;1.25;0.80;;;25.90;41.20;;;;;;4946932;28;45180;-59
2022/07/07 11:36:28;;;;;;;2.10;0.85;;;25.90;41.20;;;;;;4953894;28;44889;-58
2022/07/07 11:39:02;;;;;;;6.82;0.98;;;25.90;41.40;;;;;;4949313;28;45306;-54
2022/07/07 11:41:57;;;;;;;1.15;0.80;;;26.00;41.30;;;;;;4952421;28;46398;-55
2022/07/07 11:44:23;;;;;;;0.60;0.60;;;26.00;41.30;;;;;;4916976;28;45648;-55
2022/07/07 11:46:52;;;;;;;2.63;0.75;;;26.00;41.10;;;;;;4946253;28;46331;-58
2022/07/07 11:49:18;;;;;;;2.33;0.77;;;26.00;41.10;;;;;;4924226;28;45233;-57
2022/07/07 11:51:46;;;;;;;1.30;0.70;;;26.00;41.00;;;;;;4953172;28;46994;-57
2022/07/07 11:54:12;;;;;;;1.40;0.82;;;26.10;41.10;;;;;;4948274;28;45130;-58
2022/07/07 11:56:37;;;;;;;2.05;0.90;;;26.10;40.90;;;;;;4951412;28;45245;-56
2022/07/07 11:59:04;;;;;;;2.58;0.70;;;26.10;40.90;;;;;;4952337;28;45362;-57
2022/07/07 12:01:37;;;;;;;1.92;0.85;;;26.10;40.80;;;;;;4947310;28;46033;-55
2022/07/07 12:04:22;;;;;;;1.20;0.80;;;26.20;41.00;;;;;;4947635;28;45214;-59
2022/07/07 12:06:48;;;;;;;2.45;0.80;;;26.20;41.00;;;;;;4952051;28;45147;-57
2022/07/07 12:09:13;;;;;;;1.30;0.77;;;26.20;40.80;;;;;;4949503;28;45606;-55
2022/07/07 12:11:40;;;;;;;1.38;0.88;;;26.20;40.80;;;;;;4951289;28;47030;-59
2022/07/07 12:14:10;;;;;;;1.75;0.80;;;26.30;40.80;;;;;;4955812;28;45108;-60
2022/07/07 12:16:46;;;;;;;0.93;0.70;;;26.30;40.80;;;;;;4951100;28;45435;-57
2022/07/07 12:19:11;;;;;;;1.65;0.63;;;26.30;40.90;;;;;;4952221;28;45376;-58
2022/07/07 12:21:44;;;;;;;0.80;0.70;;;26.30;40.70;;;;;;4932015;28;46416;-57
2022/07/07 12:24:14;;;;;;;;;;;26.40;40.90;;;;;;4944678;28;45698;-57
2022/07/07 12:26:51;;;;;;;1.10;0.60;;;26.30;41.20;;;;;;4949547;28;44752;-58
2022/07/07 12:29:17;;;;;;;3.15;0.80;;;26.40;40.90;;;;;;4948966;28;45381;-59
2022/07/07 12:31:43;;;;;;;1.50;0.80;;;26.40;40.80;;;;;;4956382;28;45172;-61
2022/07/07 12:34:09;;;;;;;2.10;0.85;;;26.40;40.70;;;;;;4949935;28;45341;-59
2022/07/07 12:36:35;;;;;;;0.80;0.70;;;26.40;40.70;;;;;;4950825;28;45107;-58
2022/07/07 12:39:03;;;;;;;2.15;0.93;;;26.40;40.70;;;;;;4955915;28;45187;-56
2022/07/07 12:41:33;;;;;;;3.53;0.80;;;26.40;40.80;;;;;;4946624;28;45320;-59
2022/07/07 12:44:11;;;;;;;1.55;0.70;;;26.40;40.80;;;;;;4935438;28;44868;-59
2022/07/07 12:46:37;;;;;;;1.30;0.65;;;26.50;41.10;;;;;;4954206;28;44812;-59
2022/07/07 12:49:03;;;;;;;1.15;0.80;;;26.50;40.80;;;;;;4934122;28;45820;-58
2022/07/07 12:51:29;;;;;;;1.52;0.70;;;26.50;40.90;;;;;;4931267;28;46177;-60
2022/07/07 12:53:55;;;;;;;2.47;0.88;;;26.50;40.80;;;;;;4952317;28;45236;-61
2022/07/07 12:56:20;;;;;;;1.67;0.98;;;26.50;40.90;;;;;;4936194;28;45277;-62
2022/07/07 12:58:52;;;;;;;1.25;0.73;;;26.50;40.90;;;;;;4938259;28;44994;-61
2022/07/07 13:01:25;;;;;;;0.73;0.70;;;26.60;40.90;;;;;;4951766;28;46115;-59
2022/07/07 13:03:54;;;;;;;0.98;0.80;;;26.60;41.00;;;;;;4950717;28;45239;-60
2022/07/07 13:06:20;;;;;;;1.00;0.70;;;26.60;41.00;;;;;;4955849;28;45320;-61
2022/07/07 13:08:47;;;;;;;1.25;0.80;;;26.60;40.90;;;;;;4953628;28;44817;-60
2022/07/07 13:11:13;;;;;;;0.55;0.55;;;26.60;41.00;;;;;;4938355;28;46260;-61
2022/07/07 13:13:38;;;;;;;1.08;0.70;;;26.60;40.90;;;;;;4955076;28;45198;-61
2022/07/07 13:16:04;;;;;;;2.97;0.82;;;26.60;41.00;;;;;;4936608;28;45396;-58
2022/07/07 13:18:30;;;;;;;2.17;0.70;;;26.60;41.00;;;;;;4954919;28;45543;-59
2022/07/07 13:20:59;;;;;;;0.77;0.77;;;26.70;41.10;;;;;;4955732;28;45517;-58
2022/07/07 13:23:26;;;;;;;1.30;0.82;;;26.70;41.10;;;;;;4935749;28;44716;-59
2022/07/07 13:25:51;;;;;;;0.80;0.70;;;26.70;41.10;;;;;;4952451;28;45293;-58
2022/07/07 13:28:17;;;;;;;0.73;0.73;;;26.70;41.10;;;;;;4955094;28;45196;-58
2022/07/07 13:30:43;;;;;;;0.98;0.90;;;26.70;41.10;;;;;;4953653;28;45322;-63
2022/07/07 13:33:08;;;;;;;1.20;0.63;;;26.70;41.10;;;;;;4954600;28;45152;-57
2022/07/07 13:35:34;;;;;;;1.98;0.82;;;26.70;41.10;;;;;;4958314;28;45382;-62
2022/07/07 13:38:00;;;;;;;1.70;0.90;;;26.70;41.10;;;;;;4955543;28;46174;-61
2022/07/07 13:40:26;;;;;;;0.75;0.75;;;26.70;41.10;;;;;;4958883;28;45902;-62
2022/07/07 13:42:52;;;;;;;1.20;0.80;;;26.80;41.20;;;;;;4911585;28;45237;-59
2022/07/07 13:45:17;;;;;;;0.85;0.60;;;26.80;41.10;;;;;;4953666;28;45253;-60
2022/07/07 13:47:43;;;;;;;1.58;0.95;;;26.80;41.20;;;;;;4952168;28;45443;-60
2022/07/07 13:50:08;;;;;;;1.15;0.80;;;26.80;41.20;;;;;;4955873;28;45977;-59
2022/07/07 13:52:34;;;;;;;0.65;0.60;;;26.90;41.20;;;;;;4955345;28;45348;-58
2022/07/07 13:54:59;;;;;;;0.73;0.70;;;26.90;41.20;;;;;;4950047;28;45267;-59
2022/07/07 13:57:26;;;;;;;1.13;0.73;;;26.90;41.20;;;;;;4955820;28;45210;-61
2022/07/07 13:59:52;;;;;;;1.75;0.90;;;26.90;41.10;;;;;;4951001;28;45983;-59
2022/07/07 14:02:17;;;;;;;0.85;0.77;;;27.00;41.10;;;;;;4954388;28;45294;-58
2022/07/07 14:04:44;;;;;;;0.80;0.80;;;27.00;41.10;;;;;;4955315;28;44647;-61
2022/07/07 14:07:09;;;;;;;0.80;0.80;;;27.00;41.10;;;;;;4953796;28;45417;-60
2022/07/07 14:09:35;;;;;;;1.15;0.65;;;27.00;41.00;;;;;;4954932;28;45878;-61
2022/07/07 14:12:01;;;;;;;1.15;0.77;;;27.00;41.00;;;;;;4951354;28;45277;-60
2022/07/07 14:14:26;;;;;;;1.02;0.70;;;27.10;41.10;;;;;;4954447;28;46247;-59
2022/07/07 14:16:52;;;;;;;2.22;0.98;;;27.10;41.10;;;;;;4935651;28;45305;-58
2022/07/07 14:19:18;;;;;;;2.03;0.70;;;27.10;41.10;;;;;;4956904;28;46004;-60
2022/07/07 14:21:43;;;;;;;0.60;0.55;;;27.10;41.10;;;;;;4936575;28;45153;-64
2022/07/07 14:24:10;;;;;;;2.08;0.80;;;27.10;41.10;;;;;;4933264;28;45396;-59
2022/07/07 14:26:36;;;;;;;0.68;0.60;;;27.10;41.10;;;;;;4938558;28;45234;-56
2022/07/07 14:29:02;;;;;;;0.98;0.70;;;27.10;41.20;;;;;;4949880;28;45488;-58
2022/07/07 14:31:29;;;;;;;1.30;0.90;;;27.10;41.20;;;;;;4955211;28;45533;-58
2022/07/07 14:33:54;;;;;;;0.77;0.70;;;27.10;41.20;;;;;;4948287;28;44921;-56
2022/07/07 14:36:20;;;;;;;2.72;0.77;;;27.10;41.40;;;;;;4947631;28;45279;-61
2022/07/07 14:38:45;;;;;;;0.65;0.65;;;27.20;41.50;;;;;;4944154;28;46245;-61
2022/07/07 14:41:11;;;;;;;2.45;0.60;;;27.20;41.50;;;;;;4955588;28;45275;-61
2022/07/07 14:43:37;;;;;;;0.80;0.70;;;27.20;41.60;;;;;;4924202;28;45184;-62
2022/07/07 14:46:04;;;;;;;1.15;0.80;;;27.10;41.60;;;;;;4952802;28;45206;-60
2022/07/07 14:48:29;;;;;;;1.30;0.73;;;27.10;41.50;;;;;;4948860;28;46179;-62
2022/07/07 14:50:55;;;;;;;1.38;0.68;;;27.10;41.50;;;;;;4948782;28;45030;-60
2022/07/07 14:53:21;;;;;;;0.93;0.70;;;27.10;41.60;;;;;;4923416;28;45237;-60
2022/07/07 14:55:46;;;;;;;1.52;0.73;;;27.10;41.60;;;;;;4940469;28;45176;-61
2022/07/07 14:58:12;;;;;;;0.93;0.70;;;27.10;41.60;;;;;;4928983;28;45883;-61
2022/07/07 15:00:38;;;;;;;1.17;0.85;;;27.10;41.70;;;;;;4947453;28;45270;-61
2022/07/07 15:03:03;;;;;;;0.60;0.60;;;27.10;41.60;;;;;;4931333;28;45645;-60
2022/07/07 15:05:29;;;;;;;3.22;0.80;;;27.10;41.70;;;;;;4929771;28;45511;-60
2022/07/07 15:07:54;;;;;;;0.77;0.60;;;27.10;41.70;;;;;;4945833;28;46453;-62
2022/07/07 15:10:20;;;;;;;0.73;0.60;;;27.10;41.70;;;;;;4945979;28;45460;-61
2022/07/07 15:12:46;;;;;;;0.70;0.70;;;27.10;41.70;;;;;;4928538;28;45284;-59
2022/07/07 15:15:11;;;;;;;1.40;0.75;;;27.10;41.70;;;;;;4944343;28;45821;-61
2022/07/07 15:17:38;;;;;;;0.75;0.75;;;27.10;41.70;;;;;;4945653;28;47142;-61
2022/07/07 15:20:04;;;;;;;1.13;0.70;;;27.10;41.70;;;;;;4945476;28;45483;-61
2022/07/07 15:22:30;;;;;;;0.60;0.60;;;27.10;41.80;;;;;;4945210;28;45555;-61
2022/07/07 15:24:55;;;;;;;0.90;0.68;;;27.10;41.80;;;;;;4944309;28;45245;-62
2022/07/07 15:27:21;;;;;;;0.60;0.60;;;27.10;41.80;;;;;;4948153;28;46830;-65
2022/07/07 15:29:46;;;;;;;1.23;0.75;;;27.10;41.80;;;;;;4948911;28;45324;-62
2022/07/07 15:32:12;;;;;;;1.52;0.60;;;27.10;41.80;;;;;;4945618;28;45782;-64
2022/07/07 15:34:38;;;;;;;1.15;0.60;;;27.10;41.80;;;;;;4948250;28;44934;-61
2022/07/07 15:37:03;;;;;;;0.82;0.60;;;27.10;41.80;;;;;;4950411;28;45681;-62
2022/07/07 15:39:29;;;;;;;0.73;0.73;;;27.00;41.80;;;;;;4927399;28;45596;-62
2022/07/07 15:41:55;;;;;;;1.23;0.88;;;27.10;41.80;;;;;;4948580;28;45511;-62
2022/07/07 15:44:20;;;;;;;1.30;0.90;;;27.10;41.90;;;;;;4948976;28;45146;-62
2022/07/07 15:46:46;;;;;;;0.70;0.70;;;27.10;41.90;;;;;;4946135;28;46112;-59
2022/07/07 15:49:11;;;;;;;1.45;0.90;;;27.00;41.80;;;;;;4930007;28;45198;-62
2022/07/07 15:51:37;;;;;;;1.02;0.90;;;27.00;41.90;;;;;;4930392;28;45604;-59